createdAt,value
2022-08-14T00:01:54.568Z,5.32
2022-08-14T00:04:36.157Z,5.60
2022-08-14T00:07:08.472Z,5.85
2022-08-14T00:09:55.189Z,5.18
2022-08-14T00:12:23.679Z,5.20
2022-08-14T00:14:53.199Z,5.25
2022-08-14T00:17:22.163Z,5.28
2022-08-14T00:19:48.615Z,5.13
2022-08-14T00:22:44.174Z,5.85
2022-08-14T00:25:08.946Z,4.63
2022-08-14T00:27:37.678Z,5.10
2022-08-14T00:30:10.937Z,5.20
2022-08-14T00:32:52.106Z,4.80
2022-08-14T00:35:22.877Z,5.18
2022-08-14T00:38:09.308Z,5.57
2022-08-14T00:40:36.442Z,5.30
2022-08-14T00:43:03.299Z,5.55
2022-08-14T00:45:30.592Z,5.35
2022-08-14T00:47:58.424Z,5.72
2022-08-14T00:50:28.365Z,5.80
2022-08-14T00:52:55.931Z,5.97
2022-08-14T00:55:23.323Z,5.78
2022-08-14T00:58:10.095Z,5.53
2022-08-14T01:00:47.257Z,5.57
2022-08-14T01:03:19.234Z,5.60
2022-08-14T01:05:51.810Z,5.57
2022-08-14T01:08:57.193Z,5.43
2022-08-14T01:11:25.485Z,5.47
2022-08-14T01:14:01.323Z,6.03
2022-08-14T01:16:31.687Z,6.07
2022-08-14T01:19:19.824Z,6.03
2022-08-14T01:21:53.179Z,5.72
2022-08-14T01:24:24.823Z,5.65
2022-08-14T01:26:57.973Z,6.20
2022-08-14T01:29:58.715Z,5.82
2022-08-14T01:32:23.106Z,5.72
2022-08-14T01:35:18.701Z,6.13
2022-08-14T01:37:44.521Z,5.72
2022-08-14T01:40:15.556Z,5.65
2022-08-14T01:42:46.821Z,5.68
2022-08-14T01:45:17.853Z,5.75
2022-08-14T01:47:52.117Z,5.60
2022-08-14T01:50:30.318Z,5.43
2022-08-14T01:53:00.436Z,6.07
2022-08-14T01:55:32.518Z,5.65
2022-08-14T01:58:02.188Z,5.70
2022-08-14T02:00:47.891Z,5.95
2022-08-14T02:03:15.238Z,6.00
2022-08-14T02:05:42.304Z,5.80
2022-08-14T02:08:10.446Z,6.32
2022-08-14T02:10:46.115Z,5.88
2022-08-14T02:13:14.082Z,6.03
2022-08-14T02:15:43.724Z,5.72
2022-08-14T02:18:10.434Z,5.78
2022-08-14T02:20:39.374Z,5.82
2022-08-14T02:23:08.454Z,5.93
2022-08-14T02:25:35.921Z,5.55
2022-08-14T02:28:23.887Z,5.72
2022-08-14T02:30:52.691Z,5.85
2022-08-14T02:33:19.581Z,6.00
2022-08-14T02:35:53.325Z,5.65
2022-08-14T02:38:29.611Z,6.40
2022-08-14T02:41:00.441Z,6.05
2022-08-14T02:43:37.418Z,5.97
2022-08-14T02:46:13.164Z,6.22
2022-08-14T02:49:02.971Z,6.20
2022-08-14T02:51:30.280Z,5.32
2022-08-14T02:53:58.279Z,5.82
2022-08-14T02:56:29.449Z,5.85
2022-08-14T02:59:00.265Z,5.93
2022-08-14T03:01:31.378Z,5.45
2022-08-14T03:04:11.163Z,6.15
2022-08-14T03:06:56.965Z,6.03
2022-08-14T03:09:25.271Z,6.60
2022-08-14T03:12:09.140Z,6.40
2022-08-14T03:14:38.062Z,6.25
2022-08-14T03:17:05.114Z,6.70
2022-08-14T03:19:32.762Z,6.57
2022-08-14T03:21:59.199Z,7.30
2022-08-14T03:24:26.609Z,6.72
2022-08-14T03:26:57.267Z,7.18
2022-08-14T03:29:24.680Z,6.88
2022-08-14T03:31:53.059Z,6.65
2022-08-14T03:34:24.838Z,6.80
2022-08-14T03:37:28.599Z,6.47
2022-08-14T03:39:53.776Z,6.30
2022-08-14T03:42:21.754Z,6.13
2022-08-14T03:45:26.203Z,5.90
2022-08-14T03:47:46.527Z,5.93
2022-08-14T03:50:30.736Z,6.38
2022-08-14T03:53:01.858Z,6.07
2022-08-14T03:55:28.862Z,6.10
2022-08-14T03:57:57.078Z,5.93
2022-08-14T04:00:40.406Z,6.65
2022-08-14T04:03:10.820Z,6.10
2022-08-14T04:05:43.431Z,6.22
2022-08-14T04:08:29.558Z,6.90
2022-08-14T04:11:01.995Z,6.32
2022-08-14T04:13:34.085Z,6.15
2022-08-14T04:16:12.676Z,6.05
2022-08-14T04:18:45.766Z,5.97
2022-08-14T04:21:13.941Z,6.32
2022-08-14T04:23:44.102Z,6.47
2022-08-14T04:26:14.932Z,6.47
2022-08-14T04:29:01.606Z,6.22
2022-08-14T04:32:59.108Z,6.57
2022-08-14T04:34:28.083Z,6.35
2022-08-14T04:37:13.795Z,6.68
2022-08-14T04:40:08.693Z,6.10
2022-08-14T04:42:54.607Z,5.78
2022-08-14T04:45:23.649Z,6.55
2022-08-14T04:48:10.405Z,6.28
2022-08-14T04:50:44.793Z,6.85
2022-08-14T04:53:17.608Z,7.00
2022-08-14T04:55:51.633Z,7.20
2022-08-14T04:58:21.747Z,7.63
2022-08-14T05:00:59.333Z,8.20
2022-08-14T05:03:28.274Z,7.63
2022-08-14T05:05:57.236Z,8.63
2022-08-14T05:08:31.917Z,8.85
2022-08-14T05:11:13.438Z,8.27
2022-08-14T05:14:16.323Z,8.77
2022-08-14T05:16:31.140Z,8.52
2022-08-14T05:19:18.374Z,8.23
2022-08-14T05:22:00.079Z,9.23
2022-08-14T05:24:28.746Z,9.30
2022-08-14T05:26:55.610Z,9.07
2022-08-14T05:29:22.102Z,9.18
2022-08-14T05:31:48.787Z,8.60
2022-08-14T05:34:16.116Z,9.18
2022-08-14T05:36:42.863Z,8.93
2022-08-14T05:39:17.297Z,9.13
2022-08-14T05:41:53.521Z,8.65
2022-08-14T05:44:20.741Z,9.95
2022-08-14T05:46:47.232Z,9.98
2022-08-14T05:49:14.389Z,9.48
2022-08-14T05:51:41.213Z,8.73
2022-08-14T05:54:13.857Z,10.85
2022-08-14T05:56:53.677Z,10.43
2022-08-14T05:59:21.634Z,9.68
2022-08-14T06:02:03.531Z,9.35
2022-08-14T06:04:32.368Z,9.93
2022-08-14T06:06:59.244Z,9.68
2022-08-14T06:09:25.719Z,9.27
2022-08-14T06:11:52.167Z,9.43
2022-08-14T06:14:24.066Z,10.13
2022-08-14T06:16:53.244Z,9.25
2022-08-14T06:19:20.296Z,9.85
2022-08-14T06:21:53.226Z,10.73
2022-08-14T06:24:24.682Z,10.02
2022-08-14T06:26:56.615Z,8.90
2022-08-14T06:29:32.445Z,9.07
2022-08-14T06:32:52.506Z,9.35
2022-08-14T06:35:03.559Z,9.88
2022-08-14T06:37:51.422Z,9.68
2022-08-14T06:40:27.678Z,10.52
2022-08-14T06:43:06.929Z,9.88
2022-08-14T06:45:34.951Z,9.23
2022-08-14T06:48:06.248Z,9.48
2022-08-14T06:50:39.640Z,9.00
2022-08-14T06:53:07.199Z,9.52
2022-08-14T06:55:34.073Z,10.05
2022-08-14T06:58:03.936Z,9.30
2022-08-14T07:00:32.385Z,8.95
2022-08-14T07:03:19.319Z,8.88
2022-08-14T07:05:54.963Z,9.48
2022-08-14T07:08:22.596Z,10.90
2022-08-14T07:10:54.772Z,9.30
2022-08-14T07:13:26.488Z,9.70
2022-08-14T07:15:55.109Z,8.13
2022-08-14T07:18:24.664Z,8.70
2022-08-14T07:20:55.884Z,8.65
2022-08-14T07:23:25.879Z,8.30
2022-08-14T07:25:54.068Z,8.63
2022-08-14T07:28:23.942Z,8.65
2022-08-14T07:30:56.207Z,9.60
2022-08-14T07:33:24.898Z,8.27
2022-08-14T07:35:59.244Z,8.35
2022-08-14T07:38:35.469Z,7.95
2022-08-14T07:41:06.970Z,8.15
2022-08-14T07:43:39.668Z,7.50
2022-08-14T07:46:06.922Z,7.63
2022-08-14T07:48:38.738Z,8.32
2022-08-14T07:51:10.854Z,7.85
2022-08-14T07:53:40.420Z,7.90
2022-08-14T07:56:09.117Z,9.70
2022-08-14T07:58:51.714Z,8.15
2022-08-14T08:01:19.819Z,9.27
2022-08-14T08:03:51.830Z,8.80
2022-08-14T08:06:25.970Z,8.32
2022-08-14T08:09:01.429Z,8.68
2022-08-14T08:11:35.031Z,9.38
2022-08-14T08:14:10.402Z,8.30
2022-08-14T08:16:38.221Z,8.65
2022-08-14T08:19:12.564Z,9.05
2022-08-14T08:21:40.400Z,9.15
2022-08-14T08:24:10.562Z,9.13
2022-08-14T08:26:39.014Z,9.52
2022-08-14T08:29:06.860Z,8.35
2022-08-14T08:31:35.142Z,9.23
2022-08-14T08:34:04.658Z,10.02
2022-08-14T08:36:41.094Z,9.25
2022-08-14T08:39:17.532Z,9.85
2022-08-14T08:41:49.238Z,9.38
2022-08-14T08:44:31.914Z,9.32
2022-08-14T08:47:05.443Z,9.45
2022-08-14T08:49:48.157Z,9.40
2022-08-14T08:52:25.283Z,9.55
2022-08-14T08:54:55.989Z,9.68
2022-08-14T08:57:22.465Z,10.05
2022-08-14T08:59:55.234Z,9.60
2022-08-14T09:02:26.200Z,10.02
2022-08-14T09:05:02.241Z,9.20
2022-08-14T09:07:28.958Z,8.90
2022-08-14T09:09:59.011Z,8.80
2022-08-14T09:12:26.956Z,9.93
2022-08-14T09:14:57.459Z,9.13
2022-08-14T09:17:25.966Z,8.95
2022-08-14T09:19:53.578Z,9.07
2022-08-14T09:22:34.701Z,9.02
2022-08-14T09:25:07.299Z,9.13
2022-08-14T09:27:34.252Z,9.07
2022-08-14T09:30:01.552Z,9.50
2022-08-14T09:33:00.242Z,8.75
2022-08-14T09:35:55.055Z,8.40
2022-08-14T09:38:35.803Z,8.82
2022-08-14T09:42:21.252Z,8.75
2022-08-14T09:45:03.956Z,8.70
2022-08-14T09:47:52.191Z,8.23
2022-08-14T09:50:25.712Z,7.88
2022-08-14T09:52:58.656Z,8.35
2022-08-14T09:55:28.125Z,8.45
2022-08-14T09:58:08.428Z,8.52
2022-08-14T10:00:46.494Z,8.57
2022-08-14T10:03:36.211Z,7.68
2022-08-14T10:06:15.642Z,7.90
2022-08-14T10:08:52.031Z,7.75
2022-08-14T10:11:23.532Z,7.97
2022-08-14T10:13:56.875Z,7.82
2022-08-14T10:16:33.678Z,7.38
2022-08-14T10:19:15.952Z,7.40
2022-08-14T10:21:58.522Z,7.82
2022-08-14T10:24:42.141Z,7.25
2022-08-14T10:27:32.766Z,7.78
2022-08-14T10:30:04.425Z,7.30
2022-08-14T10:32:51.836Z,7.65
2022-08-14T10:35:17.715Z,7.30
2022-08-14T10:37:50.430Z,7.60
2022-08-14T10:40:37.835Z,7.85
2022-08-14T10:43:26.427Z,7.50
2022-08-14T10:45:59.633Z,7.50
2022-08-14T10:48:36.463Z,7.35
2022-08-14T10:51:04.806Z,7.18
2022-08-14T10:53:40.140Z,7.25
2022-08-14T10:56:22.085Z,7.30
2022-08-14T10:59:08.470Z,7.80
2022-08-14T11:01:40.805Z,7.13
2022-08-14T11:04:20.223Z,7.07
2022-08-14T11:06:53.202Z,7.05
2022-08-14T11:09:19.711Z,6.82
2022-08-14T11:11:49.339Z,7.30
2022-08-14T11:14:22.911Z,6.53
2022-08-14T11:16:53.816Z,7.00
2022-08-14T11:19:24.290Z,6.57
2022-08-14T11:21:52.024Z,6.82
2022-08-14T11:24:50.835Z,6.20
2022-08-14T11:27:12.516Z,6.47
2022-08-14T11:29:40.254Z,6.70
2022-08-14T11:32:07.198Z,6.30
2022-08-14T11:34:37.559Z,6.47
2022-08-14T11:37:20.717Z,6.10
2022-08-14T11:39:53.444Z,6.45
2022-08-14T11:42:57.913Z,6.45
2022-08-14T11:45:11.162Z,6.57
2022-08-14T11:48:13.315Z,6.82
2022-08-14T11:50:37.119Z,6.13
2022-08-14T11:53:06.878Z,6.03
2022-08-14T11:55:35.531Z,5.80
2022-08-14T11:58:10.581Z,5.97
2022-08-14T12:00:52.535Z,6.72
2022-08-14T12:03:26.927Z,5.88
2022-08-14T12:06:28.157Z,6.03
2022-08-14T12:09:00.323Z,6.40
2022-08-14T12:11:38.382Z,6.57
2022-08-14T12:14:13.407Z,5.95
2022-08-14T12:17:09.516Z,6.18
2022-08-14T12:19:54.045Z,6.05
2022-08-14T12:22:33.266Z,6.00
2022-08-14T12:25:00.659Z,5.93
2022-08-14T12:27:53.895Z,6.60
2022-08-14T12:30:43.713Z,5.95
2022-08-14T12:33:30.889Z,5.75
2022-08-14T12:36:04.103Z,6.20
2022-08-14T12:38:38.204Z,5.93
2022-08-14T12:41:20.818Z,6.30
2022-08-14T12:43:53.550Z,6.00
2022-08-14T12:46:27.243Z,5.97
2022-08-14T12:48:56.938Z,6.28
2022-08-14T12:51:27.007Z,6.97
2022-08-14T12:53:55.066Z,6.60
2022-08-14T12:56:33.830Z,6.45
2022-08-14T12:59:01.614Z,6.70
2022-08-14T13:01:31.270Z,6.43
2022-08-14T13:04:13.513Z,6.95
2022-08-14T13:06:44.670Z,6.50
2022-08-14T13:09:18.882Z,6.50
2022-08-14T13:11:58.350Z,6.65
2022-08-14T13:14:29.816Z,7.47
2022-08-14T13:16:58.695Z,7.18
2022-08-14T13:19:26.786Z,6.43
2022-08-14T13:22:05.069Z,6.72
2022-08-14T13:24:38.617Z,6.45
2022-08-14T13:27:06.167Z,6.95
2022-08-14T13:29:45.821Z,6.93
2022-08-14T13:32:13.749Z,6.95
2022-08-14T13:34:43.586Z,6.10
2022-08-14T13:37:14.242Z,7.00
2022-08-14T13:39:46.962Z,6.85
2022-08-14T13:42:26.250Z,7.18
2022-08-14T13:44:54.766Z,7.22
2022-08-14T13:47:29.541Z,6.50
2022-08-14T13:50:00.409Z,6.78
2022-08-14T13:52:52.253Z,6.93
2022-08-14T13:55:15.739Z,7.00
2022-08-14T13:57:49.632Z,6.85
2022-08-14T14:00:32.455Z,6.60
2022-08-14T14:02:59.815Z,6.95
2022-08-14T14:05:26.699Z,6.95
2022-08-14T14:08:18.786Z,6.50
2022-08-14T14:11:00.756Z,6.75
2022-08-14T14:13:27.226Z,6.80
2022-08-14T14:16:02.753Z,6.72
2022-08-14T14:18:34.821Z,6.45
2022-08-14T14:21:02.653Z,6.88
2022-08-14T14:23:30.282Z,6.85
2022-08-14T14:25:57.605Z,7.15
2022-08-14T14:28:31.144Z,7.55
2022-08-14T14:31:01.206Z,7.20
2022-08-14T14:33:49.903Z,7.00
2022-08-14T14:36:23.323Z,7.50
2022-08-14T14:38:57.889Z,7.10
2022-08-14T14:41:38.212Z,7.93
2022-08-14T14:44:13.628Z,7.20
2022-08-14T14:46:44.877Z,7.38
2022-08-14T14:49:14.673Z,7.30
2022-08-14T14:51:46.929Z,7.40
2022-08-14T14:54:30.995Z,6.88
2022-08-14T14:57:02.669Z,6.93
2022-08-14T14:59:31.027Z,7.47
2022-08-14T15:02:06.314Z,7.32
2022-08-14T15:04:37.879Z,7.38
2022-08-14T15:07:05.443Z,7.50
2022-08-14T15:09:33.577Z,7.40
2022-08-14T15:12:00.024Z,6.65
2022-08-14T15:14:55.356Z,6.80
2022-08-14T15:17:12.899Z,6.78
2022-08-14T15:19:39.669Z,6.57
2022-08-14T15:22:07.679Z,6.90
2022-08-14T15:24:38.038Z,7.03
2022-08-14T15:27:06.750Z,7.57
2022-08-14T15:29:38.629Z,6.93
2022-08-14T15:32:09.754Z,6.65
2022-08-14T15:34:45.083Z,6.85
2022-08-14T15:37:17.991Z,6.38
2022-08-14T15:39:45.373Z,6.35
2022-08-14T15:42:14.766Z,6.55
2022-08-14T15:44:58.107Z,6.10
2022-08-14T15:47:30.075Z,5.97
2022-08-14T15:49:59.308Z,5.88
2022-08-14T15:52:34.474Z,6.20
2022-08-14T15:55:04.980Z,6.32
2022-08-14T15:57:32.398Z,6.80
2022-08-14T16:00:37.931Z,6.25
2022-08-14T16:03:08.768Z,6.53
2022-08-14T16:05:38.526Z,7.13
2022-08-14T16:08:27.212Z,6.90
2022-08-14T16:10:55.268Z,6.78
2022-08-14T16:13:39.740Z,6.68
2022-08-14T16:16:47.885Z,6.72
2022-08-14T16:18:58.981Z,7.25
2022-08-14T16:21:29.609Z,6.95
2022-08-14T16:23:58.438Z,6.53
2022-08-14T16:26:30.109Z,6.47
2022-08-14T16:29:07.425Z,6.88
2022-08-14T16:31:37.776Z,6.35
2022-08-14T16:34:45.433Z,6.40
2022-08-14T16:36:53.306Z,6.18
2022-08-14T16:39:21.231Z,5.53
2022-08-14T16:41:52.160Z,6.30
2022-08-14T16:44:31.609Z,6.40
2022-08-14T16:47:02.124Z,6.32
2022-08-14T16:50:02.835Z,6.13
2022-08-14T16:52:25.483Z,5.85
2022-08-14T16:55:04.724Z,5.90
2022-08-14T16:57:34.109Z,5.60
2022-08-14T17:00:00.938Z,5.82
2022-08-14T17:02:42.597Z,5.85
2022-08-14T17:05:24.784Z,5.80
2022-08-14T17:08:03.301Z,5.85
2022-08-14T17:10:52.614Z,5.65
2022-08-14T17:13:47.302Z,5.38
2022-08-14T17:16:24.923Z,5.50
2022-08-14T17:18:55.408Z,5.95
2022-08-14T17:21:31.499Z,5.60
2022-08-14T17:24:57.482Z,5.65
2022-08-14T17:27:04.232Z,5.43
2022-08-14T17:29:34.553Z,5.50
2022-08-14T17:32:21.903Z,5.35
2022-08-14T17:34:53.528Z,5.68
2022-08-14T17:37:44.850Z,5.63
2022-08-14T17:40:16.742Z,5.95
2022-08-14T17:42:51.317Z,5.70
2022-08-14T17:45:28.343Z,5.10
2022-08-14T17:47:59.206Z,5.20
2022-08-14T17:50:59.943Z,6.05
2022-08-14T17:53:30.309Z,5.15
2022-08-14T17:56:01.274Z,5.38
2022-08-14T17:58:30.934Z,5.03
2022-08-14T18:01:12.910Z,4.70
2022-08-14T18:03:50.098Z,5.03
2022-08-14T18:06:57.256Z,4.57
2022-08-14T18:09:24.651Z,4.38
2022-08-14T18:11:54.202Z,4.38
2022-08-14T18:14:31.969Z,4.32
2022-08-14T18:17:00.907Z,3.97
2022-08-14T18:19:29.434Z,4.47
2022-08-14T18:21:58.291Z,3.88
2022-08-14T18:24:29.970Z,3.97
2022-08-14T18:27:08.983Z,4.22
2022-08-14T18:29:42.717Z,4.45
2022-08-14T18:32:27.571Z,3.67
2022-08-14T18:35:10.995Z,3.90
2022-08-14T18:37:40.126Z,4.10
2022-08-14T18:40:35.189Z,3.70
2022-08-14T18:43:04.624Z,3.80
2022-08-14T18:45:41.267Z,4.20
2022-08-14T18:48:17.377Z,4.20
2022-08-14T18:50:52.968Z,4.15
2022-08-14T18:53:20.445Z,4.15
2022-08-14T18:55:54.837Z,4.53
2022-08-14T18:58:31.373Z,4.95
2022-08-14T19:01:02.342Z,4.75
2022-08-14T19:03:34.136Z,4.72
2022-08-14T19:06:08.104Z,4.90
2022-08-14T19:08:43.643Z,4.80
2022-08-14T19:11:34.225Z,4.43
2022-08-14T19:14:04.616Z,4.68
2022-08-14T19:16:36.715Z,4.72
2022-08-14T19:19:08.731Z,4.82
2022-08-14T19:22:01.821Z,4.60
2022-08-14T19:24:44.099Z,4.93
2022-08-14T19:27:24.028Z,5.30
2022-08-14T19:29:54.600Z,4.78
2022-08-14T19:32:39.768Z,5.32
2022-08-14T19:35:16.850Z,4.82
2022-08-14T19:37:52.495Z,5.07
2022-08-14T19:40:37.570Z,5.35
2022-08-14T19:43:06.563Z,5.10
2022-08-14T19:45:36.269Z,4.90
2022-08-14T19:48:11.328Z,5.18
2022-08-14T19:50:41.301Z,5.10
2022-08-14T19:53:17.393Z,4.82
2022-08-14T19:55:56.608Z,4.55
2022-08-14T19:58:30.070Z,4.93
2022-08-14T20:01:08.466Z,4.70
2022-08-14T20:04:00.451Z,4.75
2022-08-14T20:06:43.318Z,4.57
2022-08-14T20:11:07.843Z,4.57
2022-08-14T20:12:04.486Z,4.82
2022-08-14T20:14:36.031Z,4.80
2022-08-14T20:17:06.781Z,4.78
2022-08-14T20:19:37.740Z,4.97
2022-08-14T20:22:37.218Z,4.68
2022-08-14T20:24:54.976Z,4.97
2022-08-14T20:27:33.758Z,5.82
2022-08-14T20:30:36.356Z,4.82
2022-08-14T20:33:10.920Z,4.65
2022-08-14T20:35:50.316Z,4.70
2022-08-14T20:38:30.605Z,5.00
2022-08-14T20:41:07.573Z,4.95
2022-08-14T20:43:56.813Z,4.72
2022-08-14T20:46:30.266Z,5.22
2022-08-14T20:49:19.287Z,5.00
2022-08-14T20:51:59.096Z,4.78
2022-08-14T20:54:34.673Z,5.13
2022-08-14T20:57:07.210Z,5.10
2022-08-14T20:59:43.501Z,4.70
2022-08-14T21:02:34.497Z,4.65
2022-08-14T21:05:17.321Z,4.85
2022-08-14T21:07:50.205Z,4.40
2022-08-14T21:10:35.974Z,5.03
2022-08-14T21:13:25.649Z,5.28
2022-08-14T21:15:57.876Z,5.22
2022-08-14T21:18:33.081Z,5.22
2022-08-14T21:21:07.498Z,4.97
2022-08-14T21:23:37.231Z,4.93
2022-08-14T21:26:50.402Z,4.68
2022-08-14T21:29:11.253Z,4.55
2022-08-14T21:31:38.661Z,4.80
2022-08-14T21:34:27.242Z,5.35
2022-08-14T21:36:54.344Z,4.93
2022-08-14T21:39:22.245Z,5.13
2022-08-14T21:41:58.453Z,4.88
2022-08-14T21:44:42.817Z,4.50
2022-08-14T21:47:12.074Z,4.88
2022-08-14T21:49:40.030Z,4.88
2022-08-14T21:52:50.758Z,4.95
2022-08-14T21:54:59.058Z,5.15
2022-08-14T21:58:03.863Z,4.65
2022-08-14T22:00:35.415Z,5.63
2022-08-14T22:03:05.833Z,5.30
2022-08-14T22:05:32.693Z,4.82
2022-08-14T22:07:59.369Z,5.10
2022-08-14T22:10:29.199Z,4.60
2022-08-14T22:13:00.090Z,4.20
2022-08-14T22:15:29.774Z,4.50
2022-08-14T22:17:56.800Z,4.47
2022-08-14T22:20:28.005Z,4.97
2022-08-14T22:22:56.144Z,4.82
2022-08-14T22:25:33.819Z,4.43
2022-08-14T22:28:04.213Z,4.90
2022-08-14T22:30:30.732Z,4.30
2022-08-14T22:32:59.948Z,4.50
2022-08-14T22:35:27.573Z,4.30
2022-08-14T22:38:35.960Z,4.40
2022-08-14T22:41:04.573Z,4.63
2022-08-14T22:43:30.218Z,4.50
2022-08-14T22:45:58.183Z,4.80
2022-08-14T22:48:29.366Z,4.18
2022-08-14T22:50:56.002Z,4.60
2022-08-14T22:53:23.468Z,5.00
2022-08-14T22:55:52.116Z,5.30
2022-08-14T22:58:20.339Z,5.03
2022-08-14T23:01:00.968Z,5.00
2022-08-14T23:03:27.962Z,4.97
2022-08-14T23:05:55.495Z,4.90
2022-08-14T23:08:59.357Z,4.68
2022-08-14T23:11:10.381Z,5.28
2022-08-14T23:13:39.274Z,4.78
2022-08-14T23:16:06.476Z,5.57
2022-08-14T23:18:32.921Z,5.28
2022-08-14T23:20:59.352Z,4.22
2022-08-14T23:23:26.730Z,4.60
2022-08-14T23:26:00.681Z,5.00
2022-08-14T23:28:58.497Z,4.72
2022-08-14T23:31:34.184Z,5.15
2022-08-14T23:34:06.620Z,5.20
2022-08-14T23:36:37.279Z,5.03
2022-08-14T23:39:10.595Z,5.50
2022-08-14T23:41:53.043Z,5.30
2022-08-14T23:44:23.561Z,5.15
2022-08-14T23:46:58.843Z,5.40
2022-08-14T23:49:56.635Z,5.47
2022-08-14T23:52:50.781Z,5.95
2022-08-14T23:55:05.106Z,5.60
2022-08-14T23:57:31.538Z,5.38
2022-08-14T23:59:59.514Z,5.30
